createdAt,value
2019-01-08T00:04:22.369Z,99780.95
2019-01-08T00:07:01.852Z,99780.98
2019-01-08T00:09:41.405Z,99787.04
2019-01-08T00:12:21.014Z,99781.19
2019-01-08T00:15:01.797Z,99781.98
2019-01-08T00:17:41.039Z,99775.48
2019-01-08T00:20:14.835Z,99770.55
2019-01-08T00:22:49.793Z,99760.53
2019-01-08T00:25:23.187Z,99765.92
2019-01-08T00:27:59.770Z,99756.36
2019-01-08T00:30:38.318Z,99751.88
2019-01-08T00:33:18.915Z,99743.78
2019-01-08T00:35:58.546Z,99744.72
2019-01-08T00:38:38.517Z,99741.47
2019-01-08T00:41:27.171Z,99747.44
2019-01-08T00:44:05.618Z,99746.55
2019-01-08T00:46:47.570Z,99751.05
2019-01-08T00:49:26.090Z,99751.05
2019-01-08T00:52:07.294Z,99752.85
2019-01-08T00:54:45.835Z,99748.70
2019-01-08T00:57:40.975Z,99744.55
2019-01-08T01:00:20.949Z,99743.64
2019-01-08T01:02:59.089Z,99742.95
2019-01-08T01:05:41.560Z,99744.75
2019-01-08T01:08:23.621Z,99743.09
2019-01-08T01:11:01.541Z,99739.59
2019-01-08T01:13:42.365Z,99733.48
2019-01-08T01:16:25.080Z,99727.09
2019-01-08T01:19:04.328Z,99729.48
2019-01-08T01:21:41.626Z,99715.62
2019-01-08T01:24:20.063Z,99717.44
2019-01-08T01:27:01.977Z,99720.48
2019-01-08T01:29:41.895Z,99714.39
2019-01-08T01:32:20.841Z,99705.17
2019-01-08T01:35:02.873Z,99711.16
2019-01-08T01:37:38.360Z,99706.66
2019-01-08T01:40:14.488Z,99702.15
2019-01-08T01:42:54.461Z,99706.55
2019-01-08T01:45:33.684Z,99691.80
2019-01-08T01:48:11.873Z,99697.30
2019-01-08T01:50:50.609Z,99700.80
2019-01-08T01:53:29.801Z,99696.75
2019-01-08T01:56:20.841Z,99691.70
2019-01-08T01:58:54.466Z,99694.84
2019-01-08T02:01:30.962Z,99686.75
2019-01-08T02:04:05.224Z,99690.45
2019-01-08T02:06:41.055Z,99683.04
2019-01-08T02:09:14.901Z,99692.39
2019-01-08T02:11:48.890Z,99684.29
2019-01-08T02:14:22.056Z,99689.93
2019-01-08T02:16:55.855Z,99684.29
2019-01-08T02:19:29.212Z,99680.80
2019-01-08T02:22:02.694Z,99680.23
2019-01-08T02:24:38.565Z,99680.23
2019-01-08T02:27:12.425Z,99684.32
2019-01-08T02:29:50.822Z,99673.94
2019-01-08T02:32:25.523Z,99656.73
2019-01-08T02:35:00.418Z,99657.08
2019-01-08T02:37:33.520Z,99650.98
2019-01-08T02:40:07.464Z,99646.28
2019-01-08T02:42:40.735Z,99643.92
2019-01-08T02:45:13.736Z,99645.73
2019-01-08T02:47:46.993Z,99637.28
2019-01-08T02:50:19.699Z,99632.12
2019-01-08T02:52:52.999Z,99629.42
2019-01-08T02:55:25.916Z,99620.87
2019-01-08T02:57:59.295Z,99617.73
2019-01-08T03:00:32.190Z,99614.47
2019-01-08T03:03:05.667Z,99615.02
2019-01-08T03:05:39.450Z,99616.69
2019-01-08T03:08:13.135Z,99618.27
2019-01-08T03:10:46.692Z,99609.52
2019-01-08T03:13:19.724Z,99592.39
2019-01-08T03:15:53.586Z,99577.62
2019-01-08T03:18:26.694Z,99571.52
2019-01-08T03:20:59.777Z,99569.75
2019-01-08T03:23:33.617Z,99550.70
2019-01-08T03:26:07.518Z,99546.11
2019-01-08T03:28:40.904Z,99542.30
2019-01-08T03:31:17.907Z,99542.67
2019-01-08T03:33:52.614Z,99538.20
2019-01-08T03:36:26.595Z,99546.30
2019-01-08T03:39:00.069Z,99539.09
2019-01-08T03:41:34.656Z,99531.89
2019-01-08T03:44:07.568Z,99519.06
2019-01-08T03:46:41.385Z,99506.03
2019-01-08T03:49:15.367Z,99504.06
2019-01-08T03:51:48.754Z,99487.53
2019-01-08T03:54:23.734Z,99489.58
2019-01-08T03:57:09.564Z,99484.73
2019-01-08T03:59:46.825Z,99472.59
2019-01-08T04:02:19.898Z,99474.73
2019-01-08T04:04:57.540Z,99475.29
2019-01-08T04:07:32.557Z,99462.03
2019-01-08T04:10:08.195Z,99447.94
2019-01-08T04:12:42.106Z,99450.55
2019-01-08T04:15:16.756Z,99443.85
2019-01-08T04:17:55.767Z,99433.35
2019-01-08T04:20:35.027Z,99440.12
2019-01-08T04:23:15.282Z,99438.28
2019-01-08T04:25:59.632Z,99437.30
2019-01-08T04:28:44.634Z,99431.92
2019-01-08T04:31:22.074Z,99438.82
2019-01-08T04:34:02.507Z,99449.52
2019-01-08T04:36:36.988Z,99432.64
2019-01-08T04:39:15.873Z,99431.20
2019-01-08T04:41:56.059Z,99417.42
2019-01-08T04:44:29.535Z,99408.80
2019-01-08T04:47:02.854Z,99405.20
2019-01-08T04:49:37.161Z,99395.11
2019-01-08T04:52:09.723Z,99397.11
2019-01-08T04:54:50.014Z,99389.27
2019-01-08T04:57:27.394Z,99388.48
2019-01-08T05:00:06.075Z,99364.46
2019-01-08T05:02:47.385Z,99366.25
2019-01-08T05:05:26.462Z,99362.21
2019-01-08T05:08:08.800Z,99358.52
2019-01-08T05:10:47.217Z,99352.87
2019-01-08T05:13:24.792Z,99340.99
2019-01-08T05:16:00.801Z,99342.34
2019-01-08T05:19:11.969Z,99326.96
2019-01-08T05:22:23.778Z,99329.52
2019-01-08T05:25:04.280Z,99320.78
2019-01-08T05:27:42.348Z,99309.11
2019-01-08T05:30:24.046Z,99310.44
2019-01-08T05:32:59.227Z,99298.75
2019-01-08T05:35:37.464Z,99300.37
2019-01-08T05:38:18.502Z,99291.47
2019-01-08T05:40:55.861Z,99291.66
2019-01-08T05:43:34.979Z,99282.92
2019-01-08T05:46:13.935Z,99278.05
2019-01-08T05:48:50.709Z,99279.59
2019-01-08T05:51:26.090Z,99287.53
2019-01-08T05:54:01.519Z,99287.21
2019-01-08T05:56:38.290Z,99272.84
2019-01-08T05:59:15.514Z,99277.48
2019-01-08T06:01:52.487Z,99285.87
2019-01-08T06:04:26.765Z,99261.37
2019-01-08T06:07:00.146Z,99277.77
2019-01-08T06:09:33.935Z,99274.61
2019-01-08T06:12:06.852Z,99279.91
2019-01-08T06:14:40.573Z,99269.67
2019-01-08T06:17:13.928Z,99278.68
2019-01-08T06:19:47.544Z,99261.11
2019-01-08T06:22:21.998Z,99269.23
2019-01-08T06:24:56.089Z,99261.58
2019-01-08T06:27:34.909Z,99260.94
2019-01-08T06:30:11.331Z,99268.59
2019-01-08T06:32:48.519Z,99258.80
2019-01-08T06:35:24.062Z,99243.48
2019-01-08T06:38:00.853Z,99244.75
2019-01-08T06:40:34.822Z,99249.44
2019-01-08T06:43:09.480Z,99250.14
2019-01-08T06:45:43.008Z,99244.48
2019-01-08T06:48:17.490Z,99238.87
2019-01-08T06:50:56.562Z,99240.44
2019-01-08T06:53:31.161Z,99246.39
2019-01-08T06:56:10.078Z,99230.12
2019-01-08T06:58:43.154Z,99226.80
2019-01-08T07:01:16.413Z,99228.33
2019-01-08T07:03:49.814Z,99224.52
2019-01-08T07:06:23.695Z,99225.86
2019-01-08T07:08:58.811Z,99223.37
2019-01-08T07:11:32.959Z,99217.33
2019-01-08T07:14:05.972Z,99217.72
2019-01-08T07:16:39.292Z,99214.14
2019-01-08T07:19:14.603Z,99213.15
2019-01-08T07:21:47.242Z,99203.59
2019-01-08T07:24:21.011Z,99193.71
2019-01-08T07:26:54.872Z,99199.83
2019-01-08T07:29:27.482Z,99197.37
2019-01-08T07:32:00.377Z,99192.48
2019-01-08T07:34:33.939Z,99190.66
2019-01-08T07:37:07.320Z,99178.69
2019-01-08T07:39:40.700Z,99180.04
2019-01-08T07:42:14.264Z,99174.08
2019-01-08T07:44:47.743Z,99174.64
2019-01-08T07:47:20.430Z,99173.94
2019-01-08T07:49:53.806Z,99160.72
2019-01-08T07:52:28.621Z,99165.67
2019-01-08T07:55:02.470Z,99156.50
2019-01-08T07:57:35.761Z,99142.81
2019-01-08T08:00:10.913Z,99155.63
2019-01-08T08:02:44.918Z,99150.03
2019-01-08T08:05:19.118Z,99143.81
2019-01-08T08:07:54.435Z,99140.28
2019-01-08T08:10:27.176Z,99144.84
2019-01-08T08:13:00.539Z,99153.94
2019-01-08T08:15:34.026Z,99143.58
2019-01-08T08:18:07.349Z,99139.17
2019-01-08T08:20:41.267Z,99135.33
2019-01-08T08:23:14.367Z,99138.66
2019-01-08T08:25:47.736Z,99135.01
2019-01-08T08:28:21.139Z,99121.16
2019-01-08T08:30:58.930Z,99123.39
2019-01-08T08:33:29.879Z,99123.94
2019-01-08T08:36:05.155Z,99119.26
2019-01-08T08:38:38.536Z,99111.33
2019-01-08T08:41:12.002Z,99113.98
2019-01-08T08:43:45.419Z,99109.42
2019-01-08T08:46:18.591Z,99117.28
2019-01-08T08:48:51.672Z,99113.51
2019-01-08T08:51:24.323Z,99092.41
2019-01-08T08:53:57.008Z,99096.02
2019-01-08T08:56:30.383Z,99100.22
2019-01-08T15:17:57.723Z,99128.28
2019-01-08T15:20:30.944Z,99115.51
2019-01-08T15:23:03.935Z,99124.74
2019-01-08T15:25:37.461Z,99138.77
2019-01-08T15:28:12.319Z,99148.70
2019-01-08T15:30:45.597Z,99134.91
2019-01-08T15:33:19.002Z,99137.01
2019-01-08T15:35:52.472Z,99131.06
2019-01-08T15:38:26.395Z,99125.70
2019-01-08T15:41:00.947Z,99135.30
2019-01-08T15:43:33.909Z,99120.55
2019-01-08T15:46:07.114Z,99138.53
2019-01-08T15:48:42.320Z,99129.80
2019-01-08T15:51:15.854Z,99137.50
2019-01-08T15:53:49.838Z,99142.83
2019-01-08T15:56:23.731Z,99137.46
2019-01-08T15:58:57.036Z,99124.43
2019-01-08T16:01:30.830Z,99136.31
2019-01-08T16:04:04.241Z,99136.48
2019-01-08T16:06:37.675Z,99154.55
2019-01-08T16:09:10.455Z,99164.65
2019-01-08T16:11:43.395Z,99164.42
2019-01-08T16:14:16.802Z,99161.09
2019-01-08T16:16:50.302Z,99170.06
2019-01-08T16:19:23.809Z,99164.14
2019-01-08T16:21:56.987Z,99169.66
2019-01-08T16:24:29.987Z,99166.08
2019-01-08T16:27:03.876Z,99164.28
2019-01-08T16:29:38.611Z,99160.39
2019-01-08T16:32:12.541Z,99158.03
2019-01-08T16:34:45.525Z,99156.80
2019-01-08T16:37:19.224Z,99161.95
2019-01-08T16:39:53.147Z,99169.59
2019-01-08T16:42:26.782Z,99169.15
2019-01-08T16:45:00.361Z,99163.41
2019-01-08T16:47:33.524Z,99161.52
2019-01-08T16:50:07.448Z,99175.34
2019-01-08T16:52:41.034Z,99174.55
2019-01-08T16:55:14.543Z,99168.27
2019-01-08T16:57:48.433Z,99168.70
2019-01-08T17:00:21.640Z,99177.80
2019-01-08T17:02:55.250Z,99187.47
2019-01-08T17:05:29.085Z,99175.91
2019-01-08T17:08:02.976Z,99188.27
2019-01-08T17:10:37.671Z,99184.09
2019-01-08T17:13:11.392Z,99175.24
2019-01-08T17:15:45.327Z,99187.16
2019-01-08T17:18:18.205Z,99191.87
2019-01-08T17:20:51.262Z,99190.52
2019-01-08T17:23:25.076Z,99203.58
2019-01-08T17:25:59.125Z,99211.00
2019-01-08T17:28:32.763Z,99203.72
2019-01-08T17:31:06.243Z,99219.31
2019-01-08T17:33:39.044Z,99201.13
2019-01-08T17:36:12.159Z,99210.89
2019-01-08T17:38:44.820Z,99210.55
2019-01-08T17:41:19.014Z,99211.23
2019-01-08T17:43:53.503Z,99210.00
2019-01-08T17:46:26.413Z,99217.38
2019-01-08T17:48:59.451Z,99226.80
2019-01-08T17:51:33.479Z,99219.04
2019-01-08T17:54:06.790Z,99220.62
2019-01-08T17:56:40.568Z,99211.86
2019-01-08T17:59:19.039Z,99207.13
2019-01-08T18:01:54.070Z,99227.11
2019-01-08T18:04:28.121Z,99228.22
2019-01-08T18:07:01.697Z,99236.54
2019-01-08T18:09:34.842Z,99238.78
2019-01-08T18:12:07.760Z,99238.67
2019-01-08T18:14:41.603Z,99241.37
2019-01-08T18:17:15.236Z,99250.45
2019-01-08T18:19:48.653Z,99239.47
2019-01-08T18:22:22.253Z,99241.72
2019-01-08T18:24:55.732Z,99237.23
2019-01-08T18:27:29.783Z,99234.09
2019-01-08T18:30:03.942Z,99234.88
2019-01-08T18:32:37.041Z,99237.57
2019-01-08T18:35:11.687Z,99236.78
2019-01-08T18:37:45.966Z,99231.84
2019-01-08T18:40:19.494Z,99245.87
2019-01-08T18:42:53.022Z,99247.33
2019-01-08T18:45:26.190Z,99237.34
2019-01-08T18:47:59.690Z,99253.16
2019-01-08T18:50:33.284Z,99255.62
2019-01-08T18:53:05.976Z,99249.58
2019-01-08T18:55:39.152Z,99250.92
2019-01-08T18:58:12.171Z,99245.97
2019-01-08T19:00:45.671Z,99254.52
2019-01-08T19:03:19.703Z,99245.43
2019-01-08T19:05:53.200Z,99256.74
2019-01-08T19:09:03.538Z,99259.99
2019-01-08T19:11:38.876Z,99260.31
2019-01-08T19:14:12.343Z,99269.73
2019-01-08T19:16:45.500Z,99254.17
2019-01-08T19:19:21.928Z,99281.64
2019-01-08T19:21:56.013Z,99279.61
2019-01-08T19:24:29.887Z,99278.73
2019-01-08T19:27:02.672Z,99267.97
2019-01-08T19:29:37.378Z,99284.45
2019-01-08T19:32:11.449Z,99285.70
2019-01-08T19:34:44.714Z,99283.21
2019-01-08T19:37:18.116Z,99290.16
2019-01-08T19:39:52.276Z,99289.50
2019-01-08T19:42:28.339Z,99286.58
2019-01-08T19:45:01.173Z,99282.53
2019-01-08T19:47:34.683Z,99283.09
2019-01-08T19:50:08.418Z,99294.20
2019-01-08T19:52:41.628Z,99294.44
2019-01-08T19:55:18.303Z,99298.67
2019-01-08T19:57:51.291Z,99299.81
2019-01-08T20:00:25.055Z,99298.47
2019-01-08T20:02:57.946Z,99296.56
2019-01-08T20:05:30.762Z,99299.48
2019-01-08T20:08:04.777Z,99304.86
2019-01-08T20:10:37.855Z,99291.97
2019-01-08T20:13:11.433Z,99300.25
2019-01-08T20:15:45.476Z,99300.36
2019-01-08T20:18:18.602Z,99289.03
2019-01-08T20:20:55.034Z,99290.27
2019-01-08T20:23:28.502Z,99302.97
2019-01-08T20:26:01.965Z,99302.63
2019-01-08T20:28:35.802Z,99307.43
2019-01-08T20:31:09.568Z,99301.94
2019-01-08T20:33:42.746Z,99309.13
2019-01-08T20:36:16.349Z,99318.89
2019-01-08T20:38:50.030Z,99296.88
2019-01-08T20:41:23.814Z,99309.92
2019-01-08T20:43:56.837Z,99313.27
2019-01-08T20:46:30.885Z,99324.72
2019-01-08T20:49:04.570Z,99320.44
2019-01-08T20:51:39.110Z,99311.91
2019-01-08T20:54:12.161Z,99322.68
2019-01-08T20:56:45.866Z,99335.59
2019-01-08T20:59:21.940Z,99341.30
2019-01-08T21:01:55.587Z,99346.12
2019-01-08T21:04:35.419Z,99347.36
2019-01-08T21:07:03.676Z,99354.53
2019-01-08T21:09:37.235Z,99357.91
2019-01-08T21:12:11.235Z,99354.06
2019-01-08T21:14:44.780Z,99360.46
2019-01-08T21:17:17.850Z,99362.02
2019-01-08T21:19:51.130Z,99357.59
2019-01-08T21:22:24.546Z,99340.95
2019-01-08T21:24:57.853Z,99343.70
2019-01-08T21:27:31.023Z,99342.45
2019-01-08T21:30:04.226Z,99346.70
2019-01-08T21:32:39.343Z,99347.46
2019-01-08T21:35:13.508Z,99344.01
2019-01-08T21:37:47.201Z,99339.98
2019-01-08T21:40:20.375Z,99340.73
2019-01-08T21:42:53.892Z,99341.62
2019-01-08T21:45:27.166Z,99340.16
2019-01-08T21:48:00.885Z,99334.02
2019-01-08T21:50:34.279Z,99336.50
2019-01-08T21:53:07.486Z,99329.41
2019-01-08T21:55:41.295Z,99345.11
2019-01-08T21:58:14.377Z,99345.78
2019-01-08T22:00:50.913Z,99352.11
2019-01-08T22:03:23.921Z,99359.63
2019-01-08T22:05:56.936Z,99357.70
2019-01-08T22:08:30.486Z,99364.11
2019-01-08T22:11:04.447Z,99349.70
2019-01-08T22:13:37.923Z,99355.25
2019-01-08T22:16:11.748Z,99356.36
2019-01-08T22:18:45.267Z,99365.00
2019-01-08T22:21:18.358Z,99378.84
2019-01-08T22:23:52.340Z,99359.20
2019-01-08T22:26:25.979Z,99371.62
2019-01-08T22:29:00.123Z,99362.47
2019-01-08T22:31:33.544Z,99372.09
2019-01-08T22:34:07.501Z,99368.36
2019-01-08T22:36:40.778Z,99382.34
2019-01-08T22:39:14.340Z,99371.59
2019-01-08T22:41:48.141Z,99381.64
2019-01-08T22:44:21.556Z,99366.09
2019-01-08T22:46:55.463Z,99371.81
2019-01-08T22:49:29.096Z,99372.94
2019-01-08T22:52:02.705Z,99371.27
2019-01-08T22:54:36.376Z,99362.28
2019-01-08T22:57:09.446Z,99364.62
2019-01-08T22:59:45.557Z,99371.31
2019-01-08T23:02:18.201Z,99369.33
2019-01-08T23:04:51.673Z,99362.08
2019-01-08T23:07:24.372Z,99363.67
2019-01-08T23:09:58.292Z,99359.56
2019-01-08T23:12:32.269Z,99359.68
2019-01-08T23:15:05.594Z,99357.76
2019-01-08T23:17:39.478Z,99353.05
2019-01-08T23:20:12.993Z,99356.06
2019-01-08T23:22:46.528Z,99358.42
2019-01-08T23:25:20.496Z,99359.89
2019-01-08T23:27:54.274Z,99353.22
2019-01-08T23:30:27.579Z,99365.89
2019-01-08T23:33:00.282Z,99362.29
2019-01-08T23:35:33.950Z,99360.59
2019-01-08T23:38:06.634Z,99362.70
2019-01-08T23:40:40.191Z,99361.16
2019-01-08T23:43:13.577Z,99369.42
2019-01-08T23:45:45.903Z,99359.56
2019-01-08T23:48:19.469Z,99374.59
2019-01-08T23:50:52.984Z,99373.70
2019-01-08T23:53:30.842Z,99372.98
2019-01-08T23:56:07.624Z,99370.30
2019-01-08T23:58:39.977Z,99372.02
